Time;durP1;ratioP1;P1;durP2;ratioP2;P2;SDS_P1;SDS_P2;PMS_P1;PMS_P2;Temp;Humidity;BMP_temperature;BMP_pressure;BME280_temperature;BME280_humidity;BME280_pressure;Samples;Min_cycle;Max_cycle;Signal;HPM_P1;HPM_P2
2022/03/14 00:02:01;;;;;;;10.68;6.03;;;7.30;42.60;;;;;;5042294;28;20033;-71
2022/03/14 00:04:28;;;;;;;12.07;6.35;;;7.30;42.50;;;;;;5030011;28;20124;-71
2022/03/14 00:06:54;;;;;;;11.85;6.53;;;7.30;42.60;;;;;;5031688;28;20443;-71
2022/03/14 00:09:19;;;;;;;11.20;6.03;;;7.30;42.60;;;;;;5030551;28;20107;-71
2022/03/14 00:11:45;;;;;;;10.18;6.28;;;7.20;42.40;;;;;;5047086;28;20025;-72
2022/03/14 00:14:11;;;;;;;8.88;5.28;;;7.20;42.70;;;;;;5030623;28;20037;-71
2022/03/14 00:16:41;;;;;;;11.52;6.40;;;7.20;42.60;;;;;;5029537;28;21079;-71
2022/03/14 00:19:07;;;;;;;11.00;6.10;;;7.20;42.40;;;;;;5046381;28;20029;-72
2022/03/14 00:21:39;;;;;;;12.57;6.00;;;7.10;42.70;;;;;;5046651;28;20128;-71
2022/03/14 00:24:11;;;;;;;10.40;5.95;;;7.10;42.60;;;;;;5046833;28;20029;-71
2022/03/14 00:26:37;;;;;;;11.68;5.97;;;7.10;42.60;;;;;;5030537;28;20026;-72
2022/03/14 00:29:03;;;;;;;12.27;6.00;;;7.10;43.10;;;;;;5012920;28;20053;-71
2022/03/14 00:31:30;;;;;;;10.10;5.57;;;7.10;43.10;;;;;;5046422;28;20048;-72
2022/03/14 00:33:55;;;;;;;12.60;5.65;;;7.00;43.00;;;;;;5046014;28;20103;-71
2022/03/14 00:36:22;;;;;;;12.02;6.63;;;7.00;42.90;;;;;;5013770;28;20164;-71
2022/03/14 00:38:48;;;;;;;11.80;6.35;;;7.10;43.30;;;;;;5046976;28;20045;-72
2022/03/14 00:41:15;;;;;;;10.77;5.53;;;7.10;43.40;;;;;;5046441;28;20492;-71
2022/03/14 00:43:40;;;;;;;10.95;5.93;;;7.00;43.30;;;;;;5029157;28;20324;-72
2022/03/14 00:46:06;;;;;;;8.85;5.85;;;7.00;43.30;;;;;;5030693;28;20126;-72
2022/03/14 00:48:32;;;;;;;11.30;5.80;;;7.00;43.20;;;;;;5029156;28;20078;-71
2022/03/14 00:50:59;;;;;;;11.73;6.40;;;7.00;43.30;;;;;;5030326;28;20044;-72
2022/03/14 00:53:27;;;;;;;12.40;7.00;;;7.00;43.40;;;;;;5046078;28;20037;-72
2022/03/14 00:55:53;;;;;;;9.38;5.47;;;7.00;43.40;;;;;;5047638;28;20039;-72
2022/03/14 00:58:19;;;;;;;11.80;6.57;;;6.90;43.80;;;;;;5046334;28;20040;-72
2022/03/14 01:00:48;;;;;;;10.88;6.00;;;7.00;43.60;;;;;;5029525;28;20437;-72
2022/03/14 01:03:14;;;;;;;10.15;5.97;;;6.90;43.50;;;;;;5044589;28;20035;-72
2022/03/14 01:05:40;;;;;;;11.93;6.82;;;6.90;43.60;;;;;;5046997;28;20433;-72
2022/03/14 01:08:08;;;;;;;10.60;6.07;;;6.90;43.70;;;;;;5044347;28;20029;-72
2022/03/14 01:10:33;;;;;;;10.93;5.80;;;6.90;43.80;;;;;;5046857;28;20103;-71
2022/03/14 01:13:02;;;;;;;10.80;6.03;;;6.90;43.70;;;;;;5046310;28;20112;-71
2022/03/14 01:15:33;;;;;;;11.23;6.35;;;6.90;43.90;;;;;;5033270;28;20136;-71
2022/03/14 01:17:59;;;;;;;10.95;5.47;;;6.80;43.90;;;;;;5034078;28;20503;-71
2022/03/14 01:20:25;;;;;;;10.10;5.75;;;6.80;44.20;;;;;;5051458;28;20036;-71
2022/03/14 01:22:54;;;;;;;13.30;6.15;;;6.80;44.00;;;;;;5047449;28;20397;-71
2022/03/14 01:25:20;;;;;;;9.27;5.43;;;6.70;44.00;;;;;;5050780;28;20094;-71
2022/03/14 01:27:46;;;;;;;10.20;5.75;;;6.70;44.20;;;;;;5049650;28;20094;-72
2022/03/14 01:30:13;;;;;;;10.38;5.60;;;6.70;44.10;;;;;;5050347;28;20593;-71
2022/03/14 01:32:38;;;;;;;9.02;5.22;;;6.70;44.20;;;;;;5032563;28;20025;-71
2022/03/14 01:35:04;;;;;;;12.60;5.85;;;6.70;44.00;;;;;;5048390;28;20032;-72
2022/03/14 01:37:31;;;;;;;9.70;5.82;;;6.70;44.10;;;;;;5050676;28;20121;-71
2022/03/14 01:39:57;;;;;;;10.25;5.82;;;6.70;44.20;;;;;;5047567;28;20111;-72
2022/03/14 01:42:22;;;;;;;10.50;6.22;;;6.60;44.70;;;;;;5033202;28;20170;-71
2022/03/14 01:44:48;;;;;;;10.35;5.97;;;6.60;44.30;;;;;;5016057;28;20416;-71
2022/03/14 01:47:15;;;;;;;10.88;6.80;;;6.60;44.40;;;;;;5050746;28;20064;-71
2022/03/14 01:49:45;;;;;;;12.27;6.85;;;6.50;44.40;;;;;;5034162;28;20070;-72
2022/03/14 01:52:13;;;;;;;11.68;6.63;;;6.50;44.40;;;;;;5053571;28;20478;-71
2022/03/14 01:54:39;;;;;;;12.75;6.07;;;6.50;44.40;;;;;;5026669;28;20025;-72
2022/03/14 01:57:06;;;;;;;10.63;6.18;;;6.50;44.40;;;;;;5042339;28;20419;-72
2022/03/14 01:59:33;;;;;;;10.73;5.50;;;6.40;44.50;;;;;;5051169;28;20033;-72
2022/03/14 02:02:00;;;;;;;11.05;5.78;;;6.50;44.80;;;;;;5049268;28;20530;-71
2022/03/14 02:04:26;;;;;;;10.07;6.07;;;6.50;44.80;;;;;;5050226;28;20025;-71
2022/03/14 02:06:53;;;;;;;10.45;6.05;;;6.40;44.80;;;;;;5033686;28;20090;-71
2022/03/14 02:09:21;;;;;;;12.98;6.82;;;6.40;44.60;;;;;;5050417;28;20029;-71
2022/03/14 02:12:00;;;;;;;13.52;6.50;;;6.40;45.00;;;;;;5048713;28;20425;-72
2022/03/14 02:14:26;;;;;;;10.73;6.10;;;6.40;45.00;;;;;;5049776;28;20486;-71
2022/03/14 02:16:52;;;;;;;13.32;7.25;;;6.30;45.00;;;;;;5047903;28;20041;-71
2022/03/14 02:19:18;;;;;;;12.15;6.28;;;6.30;44.80;;;;;;5033318;28;20087;-71
2022/03/14 02:21:44;;;;;;;12.07;6.30;;;6.40;45.20;;;;;;5051798;28;20055;-71
2022/03/14 02:24:10;;;;;;;11.13;6.00;;;6.30;45.10;;;;;;5032638;28;20328;-71
2022/03/14 02:26:40;;;;;;;11.23;6.00;;;6.30;45.10;;;;;;5051224;28;20017;-71
2022/03/14 02:29:10;;;;;;;11.90;6.25;;;6.30;45.20;;;;;;5047024;28;20041;-71
2022/03/14 02:31:36;;;;;;;10.45;5.82;;;6.30;45.20;;;;;;5032246;28;20315;-71
2022/03/14 02:34:06;;;;;;;10.13;6.10;;;6.20;45.10;;;;;;5051435;28;20060;-71
2022/03/14 02:36:32;;;;;;;9.88;5.75;;;6.20;45.20;;;;;;5032124;28;20494;-72
2022/03/14 02:38:58;;;;;;;10.85;6.22;;;6.20;45.30;;;;;;5050944;28;20052;-71
2022/03/14 02:41:25;;;;;;;11.52;5.63;;;6.20;45.30;;;;;;5033681;28;20083;-71
2022/03/14 02:43:51;;;;;;;10.45;6.20;;;6.20;45.40;;;;;;5032334;28;20120;-72
2022/03/14 02:46:17;;;;;;;11.60;5.88;;;6.10;45.40;;;;;;5030117;28;20056;-71
2022/03/14 02:48:43;;;;;;;12.25;5.75;;;6.10;45.40;;;;;;5049884;28;20048;-72
2022/03/14 02:51:09;;;;;;;10.23;6.35;;;6.10;45.50;;;;;;5032732;28;20021;-71
2022/03/14 02:53:35;;;;;;;16.15;6.03;;;6.10;45.70;;;;;;5049894;28;20376;-71
2022/03/14 02:56:01;;;;;;;10.00;5.80;;;6.10;45.70;;;;;;5050426;28;20052;-71
2022/03/14 02:58:29;;;;;;;12.82;6.70;;;6.10;46.00;;;;;;5049992;28;20036;-71
2022/03/14 03:00:56;;;;;;;10.38;5.38;;;6.00;45.90;;;;;;5010234;28;20025;-71
2022/03/14 03:03:22;;;;;;;13.30;5.63;;;6.00;45.90;;;;;;5031846;28;20090;-72
2022/03/14 03:05:48;;;;;;;11.35;6.57;;;6.00;45.90;;;;;;5032874;28;20029;-71
2022/03/14 03:08:14;;;;;;;11.35;6.25;;;6.00;46.10;;;;;;5030831;28;20045;-72
2022/03/14 03:10:41;;;;;;;13.63;6.88;;;6.00;46.20;;;;;;5049776;28;20450;-71
2022/03/14 03:13:09;;;;;;;12.00;6.38;;;6.00;46.10;;;;;;5049151;28;20025;-72
2022/03/14 03:15:37;;;;;;;11.02;6.32;;;5.90;46.10;;;;;;5030244;28;20494;-71
2022/03/14 03:18:06;;;;;;;14.20;6.78;;;5.90;46.10;;;;;;5031385;28;20037;-71
2022/03/14 03:20:32;;;;;;;10.73;5.88;;;5.90;46.20;;;;;;5048255;28;20029;-72
2022/03/14 03:22:57;;;;;;;10.85;5.93;;;5.90;46.30;;;;;;5046940;28;20029;-71
2022/03/14 03:25:23;;;;;;;11.82;6.40;;;5.90;46.40;;;;;;5032119;28;20513;-71
2022/03/14 03:27:49;;;;;;;11.50;6.15;;;5.90;46.20;;;;;;5047670;28;20037;-71
2022/03/14 03:30:15;;;;;;;12.25;6.95;;;5.90;46.30;;;;;;5047500;28;20017;-71
2022/03/14 03:32:41;;;;;;;13.00;6.80;;;5.90;46.30;;;;;;5029452;28;20099;-71
2022/03/14 03:35:08;;;;;;;11.38;7.05;;;5.80;46.50;;;;;;5014449;28;20036;-71
2022/03/14 03:37:34;;;;;;;11.63;6.38;;;5.80;46.50;;;;;;5047778;28;20112;-71
2022/03/14 03:40:00;;;;;;;12.73;6.78;;;5.80;46.60;;;;;;5048463;28;20029;-71
2022/03/14 03:42:25;;;;;;;13.32;6.63;;;5.80;46.60;;;;;;5047840;28;20127;-71
2022/03/14 03:44:51;;;;;;;14.23;6.90;;;5.80;46.70;;;;;;5029393;28;20036;-71
2022/03/14 03:47:17;;;;;;;13.30;6.72;;;5.80;46.70;;;;;;5047677;28;20036;-71
2022/03/14 03:49:42;;;;;;;13.13;6.90;;;5.80;46.70;;;;;;5030898;28;20032;-71
2022/03/14 03:52:08;;;;;;;12.57;6.95;;;5.80;46.80;;;;;;5030982;28;20060;-71
2022/03/14 03:54:34;;;;;;;12.90;7.35;;;5.80;46.80;;;;;;5048716;28;20044;-71
2022/03/14 03:56:59;;;;;;;12.60;7.03;;;5.80;46.80;;;;;;5047496;28;20033;-71
2022/03/14 03:59:26;;;;;;;11.50;7.03;;;5.70;46.80;;;;;;5056744;23;20041;-69
2022/03/14 04:01:52;;;;;;;11.05;6.72;;;5.70;47.10;;;;;;4997724;28;20036;-70
2022/03/14 04:04:18;;;;;;;12.68;6.55;;;5.70;47.20;;;;;;5016503;28;20036;-69
2022/03/14 04:06:44;;;;;;;13.02;7.18;;;5.70;47.20;;;;;;5069210;28;20021;-69
2022/03/14 04:09:10;;;;;;;14.35;7.53;;;5.70;47.30;;;;;;5051854;28;20052;-70
2022/03/14 04:11:37;;;;;;;13.32;6.78;;;5.70;47.30;;;;;;5070051;28;20462;-69
2022/03/14 04:14:03;;;;;;;14.63;6.85;;;5.60;47.30;;;;;;5068783;28;20032;-69
2022/03/14 04:16:29;;;;;;;12.98;7.22;;;5.60;47.30;;;;;;5071029;28;20024;-69
2022/03/14 04:18:55;;;;;;;11.75;6.60;;;5.60;47.40;;;;;;5051498;28;20067;-69
2022/03/14 04:21:21;;;;;;;13.48;6.95;;;5.50;47.40;;;;;;5050052;28;20493;-69
2022/03/14 04:23:48;;;;;;;14.20;7.03;;;5.60;47.60;;;;;;5064664;28;20039;-68
2022/03/14 04:26:14;;;;;;;14.40;7.45;;;5.50;47.50;;;;;;5051720;28;20020;-69
2022/03/14 04:28:41;;;;;;;12.07;6.53;;;5.50;47.60;;;;;;5051550;28;20381;-70
2022/03/14 04:31:08;;;;;;;14.65;7.00;;;5.50;47.60;;;;;;5051544;28;20074;-70
2022/03/14 04:33:35;;;;;;;12.80;7.32;;;5.50;47.70;;;;;;5051611;28;20473;-68
2022/03/14 04:36:02;;;;;;;14.35;7.28;;;5.50;47.70;;;;;;5069200;28;20048;-69
2022/03/14 04:38:29;;;;;;;12.05;6.55;;;5.40;47.70;;;;;;5048460;28;20058;-69
2022/03/14 04:40:55;;;;;;;13.48;6.93;;;5.40;47.80;;;;;;5068020;28;20509;-69
2022/03/14 04:43:22;;;;;;;14.80;7.30;;;5.40;48.00;;;;;;5068892;28;20032;-69
2022/03/14 04:45:49;;;;;;;14.23;7.40;;;5.40;48.20;;;;;;5051819;28;20032;-69
2022/03/14 04:48:15;;;;;;;12.57;6.35;;;5.40;48.00;;;;;;5041682;28;20391;-69
2022/03/14 04:50:42;;;;;;;15.70;7.40;;;5.40;48.30;;;;;;5051484;28;20028;-69
2022/03/14 04:53:09;;;;;;;13.95;7.22;;;5.40;48.30;;;;;;5049249;28;20017;-69
2022/03/14 04:55:36;;;;;;;13.65;7.80;;;5.40;48.50;;;;;;5051972;28;20016;-69
2022/03/14 04:58:03;;;;;;;12.73;7.40;;;5.40;48.40;;;;;;5051196;28;20032;-69
2022/03/14 05:00:30;;;;;;;14.18;7.13;;;5.30;48.30;;;;;;5066862;28;20029;-69
2022/03/14 05:03:00;;;;;;;12.10;7.03;;;5.30;48.20;;;;;;5050104;28;20024;-69
2022/03/14 05:05:26;;;;;;;14.23;6.90;;;5.30;48.20;;;;;;5051750;28;20032;-69
2022/03/14 05:07:52;;;;;;;10.98;6.57;;;5.30;48.00;;;;;;5050641;28;20378;-69
2022/03/14 05:10:18;;;;;;;13.13;7.13;;;5.20;48.00;;;;;;5067120;28;20021;-69
2022/03/14 05:12:43;;;;;;;14.18;6.97;;;5.20;48.30;;;;;;5068715;28;20033;-69
2022/03/14 05:15:11;;;;;;;15.43;7.18;;;5.20;48.30;;;;;;5068325;28;20044;-69
2022/03/14 05:17:36;;;;;;;14.63;7.03;;;5.20;48.20;;;;;;5051196;28;20558;-70
2022/03/14 05:20:03;;;;;;;13.60;7.45;;;5.20;48.30;;;;;;5069266;28;20039;-69
2022/03/14 05:22:29;;;;;;;13.10;6.93;;;5.20;48.20;;;;;;5033765;28;20122;-69
2022/03/14 05:24:55;;;;;;;13.05;7.15;;;5.10;48.30;;;;;;5068951;28;20028;-68
2022/03/14 05:27:21;;;;;;;13.23;7.65;;;5.10;48.50;;;;;;5065738;28;20029;-70
2022/03/14 05:29:47;;;;;;;14.18;7.20;;;5.10;48.60;;;;;;5067655;28;20029;-69
2022/03/14 05:32:13;;;;;;;13.05;7.05;;;5.10;48.60;;;;;;5050889;28;20025;-69
2022/03/14 05:34:39;;;;;;;15.18;8.30;;;5.10;48.60;;;;;;5053100;28;20111;-68
2022/03/14 05:37:05;;;;;;;15.20;7.68;;;5.10;48.50;;;;;;5034809;28;20447;-69
2022/03/14 05:39:31;;;;;;;13.10;7.43;;;5.00;48.50;;;;;;5068670;28;20402;-70
2022/03/14 05:41:56;;;;;;;15.40;7.25;;;5.00;48.50;;;;;;5067486;28;20102;-69
2022/03/14 05:44:22;;;;;;;14.77;8.05;;;5.00;48.60;;;;;;5067486;28;20025;-70
2022/03/14 05:46:48;;;;;;;14.90;7.82;;;5.00;48.50;;;;;;5069290;28;20028;-69
2022/03/14 05:49:13;;;;;;;19.05;8.13;;;5.00;48.60;;;;;;5050427;28;20158;-70
2022/03/14 05:51:39;;;;;;;16.38;8.63;;;5.00;48.80;;;;;;5067610;28;20030;-69
2022/03/14 05:54:05;;;;;;;11.88;7.43;;;5.00;48.80;;;;;;5066727;28;20119;-69
2022/03/14 05:56:31;;;;;;;16.48;8.02;;;5.00;48.70;;;;;;5066887;28;20386;-69
2022/03/14 05:58:57;;;;;;;13.90;7.22;;;5.00;48.70;;;;;;5068671;28;20033;-69
2022/03/14 06:01:23;;;;;;;14.55;7.07;;;5.00;48.80;;;;;;5070422;28;20032;-69
2022/03/14 06:03:49;;;;;;;15.40;7.60;;;5.00;48.90;;;;;;5070199;28;20054;-69
2022/03/14 06:06:15;;;;;;;12.98;7.70;;;5.00;48.80;;;;;;5053275;28;20028;-69
2022/03/14 06:08:41;;;;;;;14.32;7.68;;;5.00;48.80;;;;;;5071416;28;20017;-69
2022/03/14 06:11:07;;;;;;;17.05;7.78;;;5.00;48.80;;;;;;5071161;28;20020;-69
2022/03/14 06:13:33;;;;;;;14.43;7.78;;;5.00;48.80;;;;;;5070337;28;20385;-69
2022/03/14 06:15:59;;;;;;;13.50;6.72;;;5.00;48.70;;;;;;5071969;28;20028;-69
2022/03/14 06:18:24;;;;;;;13.07;7.43;;;5.00;50.70;;;;;;5054080;28;20028;-69
2022/03/14 06:20:50;;;;;;;13.82;7.45;;;5.20;49.10;;;;;;5034994;28;20482;-69
2022/03/14 06:23:16;;;;;;;15.05;8.02;;;5.20;48.90;;;;;;5035908;28;20107;-69
2022/03/14 06:25:43;;;;;;;16.30;8.30;;;5.20;48.90;;;;;;5073031;28;20032;-69
2022/03/14 06:28:08;;;;;;;17.08;8.35;;;5.20;48.70;;;;;;5072273;28;20421;-69
2022/03/14 06:30:34;;;;;;;16.08;7.78;;;5.20;48.70;;;;;;5070576;28;20025;-69
2022/03/14 06:33:00;;;;;;;18.38;8.10;;;5.20;48.90;;;;;;5053733;28;20033;-69
2022/03/14 06:35:25;;;;;;;15.48;8.10;;;5.20;48.80;;;;;;5070437;28;20506;-69
2022/03/14 06:37:51;;;;;;;17.17;8.40;;;5.30;49.00;;;;;;5069235;28;20028;-69
2022/03/14 06:40:17;;;;;;;14.00;8.10;;;5.20;49.20;;;;;;5071179;28;20529;-70
2022/03/14 06:42:49;;;;;;;18.42;9.00;;;5.30;49.20;;;;;;5051528;28;20033;-70
2022/03/14 06:45:20;;;;;;;20.98;9.07;;;5.30;49.70;;;;;;5052898;28;20053;-69
2022/03/14 06:47:46;;;;;;;24.08;10.10;;;5.40;49.10;;;;;;5053461;28;20024;-68
2022/03/14 06:50:12;;;;;;;21.27;9.32;;;5.40;49.00;;;;;;5071037;28;20482;-69
2022/03/14 06:52:38;;;;;;;17.50;8.93;;;5.40;48.90;;;;;;5070579;28;20020;-70
2022/03/14 06:55:05;;;;;;;17.90;8.70;;;5.40;49.10;;;;;;5069211;28;20533;-71
2022/03/14 06:57:31;;;;;;;22.42;9.75;;;5.40;49.00;;;;;;5070762;28;20036;-70
2022/03/14 06:59:57;;;;;;;21.48;9.40;;;5.40;49.00;;;;;;5052286;28;20067;-70
2022/03/14 07:02:27;;;;;;;21.27;9.00;;;5.40;49.00;;;;;;5070668;28;20086;-69
2022/03/14 07:04:53;;;;;;;17.38;8.52;;;5.40;48.90;;;;;;5052345;28;20028;-70
2022/03/14 07:07:18;;;;;;;20.05;8.68;;;5.40;48.80;;;;;;5070691;28;20047;-69
2022/03/14 07:09:44;;;;;;;17.85;9.13;;;5.50;48.80;;;;;;5071152;28;20029;-70
2022/03/14 07:12:11;;;;;;;18.90;9.52;;;5.60;48.60;;;;;;5047208;28;20437;-70
2022/03/14 07:14:37;;;;;;;14.80;8.40;;;5.60;48.40;;;;;;5069008;28;20013;-70
2022/03/14 07:17:03;;;;;;;19.08;8.95;;;5.60;48.60;;;;;;5069108;28;20025;-69
2022/03/14 07:19:32;;;;;;;17.25;8.95;;;5.60;48.60;;;;;;5052086;28;20020;-69
2022/03/14 07:21:57;;;;;;;22.85;9.65;;;5.60;49.20;;;;;;5069114;28;20370;-69
2022/03/14 07:24:23;;;;;;;18.30;9.15;;;5.60;48.90;;;;;;5050996;28;20032;-69
2022/03/14 07:26:49;;;;;;;23.25;9.75;;;5.70;48.80;;;;;;5068966;28;20424;-70
2022/03/14 07:29:15;;;;;;;18.65;8.65;;;5.70;48.70;;;;;;5069670;28;20398;-69
2022/03/14 07:31:42;;;;;;;17.25;8.75;;;5.70;48.50;;;;;;5051802;28;20051;-68
2022/03/14 07:34:09;;;;;;;20.25;9.35;;;5.70;48.70;;;;;;5069885;28;20541;-68
2022/03/14 07:36:35;;;;;;;19.65;8.57;;;5.70;48.80;;;;;;5072069;28;20107;-70
2022/03/14 07:39:04;;;;;;;21.35;9.45;;;5.80;48.90;;;;;;5075989;28;20067;-70
2022/03/14 07:41:30;;;;;;;19.23;9.15;;;5.80;48.90;;;;;;5069127;28;20120;-70
2022/03/14 07:43:56;;;;;;;21.40;9.25;;;5.80;48.70;;;;;;5067683;28;20563;-71
2022/03/14 07:46:23;;;;;;;25.45;9.45;;;5.80;48.40;;;;;;5069921;28;20520;-70
2022/03/14 07:48:48;;;;;;;17.73;8.75;;;5.80;48.20;;;;;;5069519;28;20028;-70
2022/03/14 07:51:15;;;;;;;16.15;8.73;;;5.90;48.30;;;;;;5051666;28;20031;-69
2022/03/14 07:53:40;;;;;;;20.70;9.38;;;5.90;48.20;;;;;;5050831;28;20036;-68
2022/03/14 07:56:06;;;;;;;16.02;8.52;;;6.00;48.20;;;;;;5051342;28;20358;-69
2022/03/14 07:58:31;;;;;;;16.25;8.65;;;6.10;48.20;;;;;;5051158;28;20039;-69
2022/03/14 08:00:57;;;;;;;20.42;9.57;;;6.20;48.20;;;;;;5067553;28;20029;-68
2022/03/14 08:03:24;;;;;;;16.65;8.23;;;6.20;47.70;;;;;;5069345;28;20044;-70
2022/03/14 08:06:00;;;;;;;17.85;8.60;;;6.30;47.60;;;;;;5069499;28;20052;-69
2022/03/14 08:08:26;;;;;;;17.55;8.95;;;6.40;47.30;;;;;;5050427;28;20455;-69
2022/03/14 08:10:54;;;;;;;17.80;8.55;;;6.40;46.90;;;;;;5068966;28;20027;-69
2022/03/14 08:13:20;;;;;;;14.77;9.00;;;6.40;46.90;;;;;;5069157;28;20246;-69
2022/03/14 08:15:47;;;;;;;15.02;8.00;;;6.50;46.80;;;;;;5067799;28;20036;-70
2022/03/14 08:18:13;;;;;;;17.52;8.55;;;6.60;46.80;;;;;;5069290;28;20490;-69
2022/03/14 08:20:39;;;;;;;15.60;7.95;;;6.60;46.10;;;;;;5069085;28;20028;-69
2022/03/14 08:23:06;;;;;;;14.85;8.30;;;6.60;46.10;;;;;;5032046;28;20032;-69
2022/03/14 08:25:34;;;;;;;16.73;8.48;;;6.60;46.30;;;;;;5050973;28;20056;-69
2022/03/14 08:28:00;;;;;;;14.30;8.18;;;6.60;46.50;;;;;;5035054;28;20085;-68
2022/03/14 08:30:27;;;;;;;17.35;9.25;;;6.60;46.60;;;;;;5050872;28;20021;-69
2022/03/14 08:32:56;;;;;;;15.77;8.98;;;6.70;46.60;;;;;;5051171;28;20025;-69
2022/03/14 08:35:25;;;;;;;14.20;8.10;;;6.70;46.50;;;;;;5066348;28;20397;-70
2022/03/14 08:37:53;;;;;;;15.02;9.13;;;6.70;46.50;;;;;;5069893;28;20104;-70
2022/03/14 08:40:24;;;;;;;16.00;9.02;;;6.70;46.60;;;;;;5051936;28;20039;-70
2022/03/14 08:42:52;;;;;;;18.17;8.80;;;6.80;46.70;;;;;;5069540;28;20028;-70
2022/03/14 08:45:18;;;;;;;14.52;8.13;;;6.80;46.60;;;;;;5070452;28;20471;-70
2022/03/14 08:47:44;;;;;;;16.80;9.27;;;6.90;46.60;;;;;;5070528;28;20029;-70
2022/03/14 08:50:12;;;;;;;18.63;9.32;;;6.90;46.50;;;;;;5066442;28;20044;-71
2022/03/14 08:52:39;;;;;;;16.48;8.73;;;7.10;46.40;;;;;;5069609;28;20452;-70
2022/03/14 08:55:06;;;;;;;15.55;9.13;;;7.20;46.70;;;;;;5052697;28;20033;-70
2022/03/14 08:57:32;;;;;;;16.77;9.68;;;7.20;46.20;;;;;;5069995;28;20494;-69
2022/03/14 09:00:00;;;;;;;17.30;9.45;;;7.30;46.20;;;;;;5071033;28;20329;-70
2022/03/14 09:02:27;;;;;;;14.18;8.27;;;7.40;46.20;;;;;;5052574;28;20028;-70
2022/03/14 09:04:53;;;;;;;17.90;8.63;;;7.40;46.00;;;;;;5052331;28;20490;-70
2022/03/14 09:07:30;;;;;;;16.02;9.35;;;7.40;46.20;;;;;;5034771;28;20074;-70
2022/03/14 09:10:07;;;;;;;15.73;8.23;;;7.40;46.20;;;;;;5067040;28;20036;-70
2022/03/14 09:12:33;;;;;;;16.90;9.15;;;7.50;46.10;;;;;;5069672;28;20526;-70
2022/03/14 09:14:59;;;;;;;13.80;8.98;;;7.40;46.20;;;;;;5063450;28;20040;-70
2022/03/14 09:17:28;;;;;;;16.30;9.13;;;7.40;46.50;;;;;;5051745;28;20016;-69
2022/03/14 09:19:54;;;;;;;16.17;8.77;;;7.40;46.60;;;;;;5051397;28;20040;-70
2022/03/14 09:22:20;;;;;;;15.68;9.27;;;7.50;46.70;;;;;;5068874;28;20047;-70
2022/03/14 09:24:46;;;;;;;18.70;9.40;;;7.50;46.80;;;;;;5052393;28;20029;-69
2022/03/14 09:27:12;;;;;;;18.95;9.52;;;7.50;46.60;;;;;;5052629;28;20024;-68
2022/03/14 09:29:38;;;;;;;14.88;8.30;;;7.50;46.40;;;;;;5067926;28;20551;-70
2022/03/14 09:32:05;;;;;;;18.45;8.77;;;7.60;46.50;;;;;;5067550;28;20032;-69
2022/03/14 09:34:31;;;;;;;16.23;9.13;;;7.70;46.60;;;;;;5034277;28;20493;-70
2022/03/14 09:36:58;;;;;;;17.15;9.15;;;7.80;46.70;;;;;;5072108;28;20085;-69
2022/03/14 09:39:24;;;;;;;17.80;9.63;;;7.90;46.60;;;;;;5055076;28;20040;-69
2022/03/14 09:41:51;;;;;;;16.40;9.48;;;8.00;46.50;;;;;;5053988;28;20031;-69
2022/03/14 09:44:20;;;;;;;14.77;9.10;;;8.20;46.60;;;;;;5072635;28;20440;-69
2022/03/14 09:46:48;;;;;;;17.77;9.88;;;8.10;46.70;;;;;;5071287;28;20027;-69
2022/03/14 09:49:15;;;;;;;14.48;8.75;;;8.10;46.90;;;;;;5075547;28;20020;-69
2022/03/14 09:51:42;;;;;;;18.00;9.75;;;8.30;47.70;;;;;;5076066;28;20088;-70
2022/03/14 09:54:09;;;;;;;19.95;9.65;;;8.50;47.30;;;;;;5073797;28;20028;-69
2022/03/14 09:56:37;;;;;;;16.77;9.23;;;8.60;47.00;;;;;;5054923;28;20115;-70
2022/03/14 09:59:05;;;;;;;17.50;8.95;;;8.70;48.20;;;;;;5072606;28;20037;-70
2022/03/14 10:01:31;;;;;;;13.18;8.43;;;8.70;48.30;;;;;;5071337;28;20026;-70
2022/03/14 10:03:57;;;;;;;17.33;8.63;;;8.80;48.10;;;;;;5052695;28;20400;-69
2022/03/14 10:06:23;;;;;;;16.05;9.15;;;8.90;48.20;;;;;;5071225;28;20031;-70
2022/03/14 10:08:49;;;;;;;20.00;9.75;;;9.00;48.20;;;;;;5071031;28;20494;-70
2022/03/14 10:11:15;;;;;;;16.00;8.60;;;9.10;48.50;;;;;;5071233;28;20103;-70
2022/03/14 10:13:43;;;;;;;16.65;8.48;;;9.10;49.20;;;;;;5053938;28;20043;-70
2022/03/14 10:16:09;;;;;;;18.38;8.63;;;9.10;49.30;;;;;;5054628;28;20031;-70
2022/03/14 10:18:37;;;;;;;13.88;8.60;;;9.20;49.80;;;;;;5072048;28;20482;-70
2022/03/14 10:21:10;;;;;;;13.82;8.73;;;9.20;50.80;;;;;;5051684;28;20163;-69
2022/03/14 10:23:43;;;;;;;15.18;8.93;;;9.30;50.70;;;;;;5038241;28;20020;-70
2022/03/14 10:26:17;;;;;;;13.65;8.90;;;9.20;50.90;;;;;;5053656;28;20037;-70
2022/03/14 10:28:48;;;;;;;16.48;9.13;;;9.30;51.80;;;;;;5045660;28;20036;-69
2022/03/14 10:31:14;;;;;;;;;;;9.30;52.10;;;;;;5071263;28;20505;-69
2022/03/14 10:33:39;;;;;;;15.70;9.38;;;9.20;52.30;;;;;;5071089;28;19905;-70
2022/03/14 10:36:06;;;;;;;14.90;8.13;;;9.20;52.30;;;;;;5070590;28;20067;-70
2022/03/14 10:38:42;;;;;;;14.57;9.32;;;9.20;52.30;;;;;;5052163;28;20027;-70
2022/03/14 10:41:16;;;;;;;17.50;9.35;;;9.20;52.70;;;;;;5071752;28;20036;-70
2022/03/14 10:43:42;;;;;;;19.55;9.48;;;9.30;53.90;;;;;;5071663;28;20044;-70
2022/03/14 10:46:08;;;;;;;15.27;8.23;;;9.30;53.90;;;;;;5071249;28;20039;-70
2022/03/14 10:48:43;;;;;;;12.95;8.23;;;9.30;53.50;;;;;;5070401;28;20025;-70
2022/03/14 10:51:11;;;;;;;17.42;9.15;;;9.40;53.40;;;;;;5072916;28;20029;-70
2022/03/14 10:53:45;;;;;;;14.02;8.38;;;9.40;54.80;;;;;;5071699;28;20043;-70
2022/03/14 10:56:11;;;;;;;15.63;9.15;;;9.40;54.50;;;;;;5071464;28;20024;-70
2022/03/14 10:58:39;;;;;;;18.65;8.35;;;9.50;57.10;;;;;;5036852;28;20040;-70
2022/03/14 11:01:06;;;;;;;20.55;8.55;;;9.40;57.60;;;;;;5052363;28;20452;-70
2022/03/14 11:03:45;;;;;;;15.48;8.27;;;9.40;58.10;;;;;;5053263;28;20059;-70
2022/03/14 11:06:13;;;;;;;12.57;8.65;;;9.40;58.80;;;;;;5035306;28;20397;-70
2022/03/14 11:08:44;;;;;;;15.25;8.82;;;9.40;59.30;;;;;;5051320;28;20013;-70
2022/03/14 11:11:13;;;;;;;13.35;7.82;;;9.40;59.70;;;;;;5034721;28;20439;-69
2022/03/14 11:13:50;;;;;;;14.88;8.35;;;9.50;58.90;;;;;;5075320;28;20024;-71
2022/03/14 11:16:29;;;;;;;15.18;8.32;;;9.50;60.20;;;;;;5075090;28;20032;-70
2022/03/14 11:18:54;;;;;;;13.55;8.07;;;9.50;60.60;;;;;;5069572;28;20155;-70
2022/03/14 11:21:24;;;;;;;15.95;8.77;;;9.50;60.90;;;;;;5070418;28;20103;-70
2022/03/14 11:23:52;;;;;;;14.48;8.80;;;9.50;60.50;;;;;;5051639;28;20033;-70
2022/03/14 11:26:20;;;;;;;14.35;8.13;;;9.50;60.90;;;;;;5068160;28;20041;-70
2022/03/14 11:28:48;;;;;;;15.82;9.05;;;9.50;61.50;;;;;;5064158;28;20024;-70
2022/03/14 11:31:17;;;;;;;13.15;8.30;;;9.40;61.10;;;;;;5033954;28;20063;-70
2022/03/14 11:33:43;;;;;;;13.93;7.95;;;9.50;61.00;;;;;;5069605;28;20029;-70
2022/03/14 11:36:12;;;;;;;13.30;8.35;;;9.50;61.80;;;;;;5072254;28;20025;-70
2022/03/14 11:38:39;;;;;;;14.43;9.13;;;9.40;62.40;;;;;;5051284;28;20039;-69
2022/03/14 11:41:05;;;;;;;13.77;7.45;;;9.50;62.90;;;;;;5069930;28;20050;-69
2022/03/14 11:43:32;;;;;;;12.43;7.78;;;9.50;66.00;;;;;;5070331;28;20025;-69
2022/03/14 11:46:02;;;;;;;9.93;6.80;;;9.50;65.60;;;;;;5052238;28;20360;-70
2022/03/14 11:48:33;;;;;;;10.43;7.45;;;9.50;64.80;;;;;;5068057;28;20052;-69
2022/03/14 11:51:06;;;;;;;11.95;7.20;;;9.60;65.60;;;;;;5071211;28;20039;-70
2022/03/14 11:53:35;;;;;;;12.55;8.07;;;9.60;65.80;;;;;;5053562;28;20028;-70
2022/03/14 11:56:02;;;;;;;12.82;8.05;;;9.60;65.50;;;;;;5070095;28;20028;-70
2022/03/14 11:58:39;;;;;;;12.05;8.05;;;9.60;66.50;;;;;;5068262;28;20118;-70
2022/03/14 12:01:18;;;;;;;9.02;7.32;;;9.60;66.30;;;;;;5069384;28;20141;-71
2022/03/14 12:03:54;;;;;;;13.10;7.30;;;9.60;65.90;;;;;;5050716;28;20016;-70
2022/03/14 12:06:45;;;;;;;11.70;7.57;;;9.70;66.20;;;;;;5069267;28;20066;-71
2022/03/14 12:09:33;;;;;;;11.15;8.35;;;9.80;66.40;;;;;;5068966;28;20042;-70
2022/03/14 12:12:19;;;;;;;15.98;8.30;;;9.90;66.70;;;;;;5067394;28;20112;-70
2022/03/14 12:14:50;;;;;;;15.27;8.82;;;10.10;66.70;;;;;;5043574;28;20028;-70
2022/03/14 12:17:16;;;;;;;14.38;8.35;;;10.30;66.50;;;;;;5052276;28;20578;-69
2022/03/14 12:20:18;;;;;;;16.20;8.98;;;10.40;66.30;;;;;;5069112;28;20115;-70
2022/03/14 12:22:45;;;;;;;15.65;9.35;;;10.80;66.20;;;;;;5038076;28;20093;-69
2022/03/14 12:25:14;;;;;;;13.35;8.90;;;11.10;65.30;;;;;;5052866;28;20028;-71
2022/03/14 12:27:42;;;;;;;15.30;9.32;;;11.20;65.20;;;;;;5068709;28;20497;-69
2022/03/14 12:30:16;;;;;;;13.32;9.27;;;11.10;65.10;;;;;;5064179;28;20033;-70
2022/03/14 12:32:44;;;;;;;12.48;8.57;;;11.10;66.00;;;;;;5068613;28;20123;-70
2022/03/14 12:35:26;;;;;;;10.88;7.60;;;11.00;65.90;;;;;;5068447;28;20032;-69
2022/03/14 12:37:53;;;;;;;14.18;8.82;;;10.90;66.30;;;;;;5068454;28;20432;-69
2022/03/14 12:40:22;;;;;;;12.82;9.23;;;10.70;68.20;;;;;;5046838;28;20047;-69
2022/03/14 12:42:53;;;;;;;423.58;235.93;;;10.60;69.70;;;;;;5067140;28;20036;-70
2022/03/14 12:45:31;;;;;;;101.53;63.53;;;10.50;70.30;;;;;;5069382;28;20052;-70
2022/03/14 12:48:12;;;;;;;27.92;15.75;;;10.40;72.60;;;;;;5069234;28;20017;-70